sensor_id;sensor_type;location;lat;lon;timestamp;P1;durP1;ratioP1;P2;durP2;ratioP2
14734;SDS011;7458;49.002;8.472;2023-02-21T00:02:10;8.80;;;5.97;;
14734;SDS011;7458;49.002;8.472;2023-02-21T00:04:55;6.43;;;4.95;;
14734;SDS011;7458;49.002;8.472;2023-02-21T00:07:40;4.85;;;4.15;;
14734;SDS011;7458;49.002;8.472;2023-02-21T00:10:24;6.57;;;5.28;;
14734;SDS011;7458;49.002;8.472;2023-02-21T00:13:09;9.63;;;5.35;;
14734;SDS011;7458;49.002;8.472;2023-02-21T00:15:55;6.55;;;5.10;;
14734;SDS011;7458;49.002;8.472;2023-02-21T00:18:40;13.82;;;5.32;;
14734;SDS011;7458;49.002;8.472;2023-02-21T00:21:27;8.43;;;5.30;;
14734;SDS011;7458;49.002;8.472;2023-02-21T00:24:13;6.70;;;5.38;;
14734;SDS011;7458;49.002;8.472;2023-02-21T00:27:00;9.00;;;4.30;;
14734;SDS011;7458;49.002;8.472;2023-02-21T00:29:48;9.65;;;5.57;;
14734;SDS011;7458;49.002;8.472;2023-02-21T00:32:34;5.85;;;4.43;;
14734;SDS011;7458;49.002;8.472;2023-02-21T00:35:18;14.68;;;5.32;;
14734;SDS011;7458;49.002;8.472;2023-02-21T00:38:03;9.48;;;5.22;;
14734;SDS011;7458;49.002;8.472;2023-02-21T00:40:47;4.90;;;4.38;;
14734;SDS011;7458;49.002;8.472;2023-02-21T00:43:33;10.38;;;4.90;;
14734;SDS011;7458;49.002;8.472;2023-02-21T00:46:19;6.43;;;4.63;;
14734;SDS011;7458;49.002;8.472;2023-02-21T00:49:04;7.57;;;4.93;;
14734;SDS011;7458;49.002;8.472;2023-02-21T00:51:49;11.25;;;4.95;;
14734;SDS011;7458;49.002;8.472;2023-02-21T00:54:34;8.82;;;4.90;;
14734;SDS011;7458;49.002;8.472;2023-02-21T00:57:19;10.07;;;5.57;;
14734;SDS011;7458;49.002;8.472;2023-02-21T01:00:06;9.15;;;5.85;;
14734;SDS011;7458;49.002;8.472;2023-02-21T01:02:57;10.55;;;5.68;;
14734;SDS011;7458;49.002;8.472;2023-02-21T01:05:41;6.13;;;4.43;;
14734;SDS011;7458;49.002;8.472;2023-02-21T01:08:25;11.90;;;6.18;;
14734;SDS011;7458;49.002;8.472;2023-02-21T01:11:13;8.73;;;5.30;;
14734;SDS011;7458;49.002;8.472;2023-02-21T01:13:59;9.23;;;4.78;;
14734;SDS011;7458;49.002;8.472;2023-02-21T01:16:44;7.05;;;5.30;;
14734;SDS011;7458;49.002;8.472;2023-02-21T01:19:28;5.93;;;4.55;;
14734;SDS011;7458;49.002;8.472;2023-02-21T01:22:12;6.38;;;4.70;;
14734;SDS011;7458;49.002;8.472;2023-02-21T01:24:56;8.52;;;4.72;;
14734;SDS011;7458;49.002;8.472;2023-02-21T01:27:40;10.20;;;5.63;;
14734;SDS011;7458;49.002;8.472;2023-02-21T01:30:25;5.93;;;5.18;;
14734;SDS011;7458;49.002;8.472;2023-02-21T01:33:09;6.95;;;4.07;;
14734;SDS011;7458;49.002;8.472;2023-02-21T01:35:54;5.57;;;4.60;;
14734;SDS011;7458;49.002;8.472;2023-02-21T01:38:38;12.10;;;5.20;;
14734;SDS011;7458;49.002;8.472;2023-02-21T01:41:22;7.57;;;4.88;;
14734;SDS011;7458;49.002;8.472;2023-02-21T01:44:41;6.78;;;5.10;;
14734;SDS011;7458;49.002;8.472;2023-02-21T01:47:20;6.07;;;4.28;;
14734;SDS011;7458;49.002;8.472;2023-02-21T01:50:08;8.60;;;4.93;;
14734;SDS011;7458;49.002;8.472;2023-02-21T01:53:21;7.60;;;5.10;;
14734;SDS011;7458;49.002;8.472;2023-02-21T01:56:09;7.57;;;4.88;;
14734;SDS011;7458;49.002;8.472;2023-02-21T01:58:55;6.35;;;4.70;;
14734;SDS011;7458;49.002;8.472;2023-02-21T02:01:52;9.93;;;4.72;;
14734;SDS011;7458;49.002;8.472;2023-02-21T02:04:45;5.45;;;4.35;;
14734;SDS011;7458;49.002;8.472;2023-02-21T02:07:31;8.00;;;5.50;;
14734;SDS011;7458;49.002;8.472;2023-02-21T02:10:17;8.88;;;4.82;;
14734;SDS011;7458;49.002;8.472;2023-02-21T02:15:57;8.57;;;4.93;;
14734;SDS011;7458;49.002;8.472;2023-02-21T02:18:36;6.85;;;4.38;;
14734;SDS011;7458;49.002;8.472;2023-02-21T02:30:01;5.78;;;4.85;;
14734;SDS011;7458;49.002;8.472;2023-02-21T02:32:56;6.82;;;4.90;;
14734;SDS011;7458;49.002;8.472;2023-02-21T02:35:48;8.65;;;5.05;;
14734;SDS011;7458;49.002;8.472;2023-02-21T02:47:20;6.47;;;3.70;;
14734;SDS011;7458;49.002;8.472;2023-02-21T02:49:54;10.25;;;4.38;;
14734;SDS011;7458;49.002;8.472;2023-02-21T02:52:24;8.05;;;4.05;;
14734;SDS011;7458;49.002;8.472;2023-02-21T02:54:56;11.02;;;5.22;;
14734;SDS011;7458;49.002;8.472;2023-02-21T02:57:28;7.40;;;4.30;;
14734;SDS011;7458;49.002;8.472;2023-02-21T03:00:05;9.77;;;4.72;;
14734;SDS011;7458;49.002;8.472;2023-02-21T03:02:45;7.60;;;4.47;;
14734;SDS011;7458;49.002;8.472;2023-02-21T03:05:37;5.30;;;4.57;;
14734;SDS011;7458;49.002;8.472;2023-02-21T03:11:42;7.13;;;4.40;;
14734;SDS011;7458;49.002;8.472;2023-02-21T03:14:45;6.03;;;4.28;;
14734;SDS011;7458;49.002;8.472;2023-02-21T03:17:31;8.27;;;5.50;;
14734;SDS011;7458;49.002;8.472;2023-02-21T03:20:07;6.07;;;3.88;;
14734;SDS011;7458;49.002;8.472;2023-02-21T03:22:36;7.85;;;4.53;;
14734;SDS011;7458;49.002;8.472;2023-02-21T03:25:04;7.43;;;5.00;;
14734;SDS011;7458;49.002;8.472;2023-02-21T03:27:32;7.63;;;4.47;;
14734;SDS011;7458;49.002;8.472;2023-02-21T03:30:02;4.88;;;3.85;;
14734;SDS011;7458;49.002;8.472;2023-02-21T03:32:36;6.28;;;4.72;;
14734;SDS011;7458;49.002;8.472;2023-02-21T03:35:09;5.85;;;4.25;;
14734;SDS011;7458;49.002;8.472;2023-02-21T03:37:37;10.27;;;4.55;;
14734;SDS011;7458;49.002;8.472;2023-02-21T03:40:07;8.52;;;4.90;;
14734;SDS011;7458;49.002;8.472;2023-02-21T03:42:42;5.10;;;4.30;;
14734;SDS011;7458;49.002;8.472;2023-02-21T03:45:08;9.73;;;5.00;;
14734;SDS011;7458;49.002;8.472;2023-02-21T03:47:34;10.55;;;5.05;;
14734;SDS011;7458;49.002;8.472;2023-02-21T03:50:00;9.75;;;4.40;;
14734;SDS011;7458;49.002;8.472;2023-02-21T03:52:26;10.18;;;5.60;;
14734;SDS011;7458;49.002;8.472;2023-02-21T03:54:52;8.02;;;4.63;;
14734;SDS011;7458;49.002;8.472;2023-02-21T03:57:17;8.43;;;5.00;;
14734;SDS011;7458;49.002;8.472;2023-02-21T03:59:43;6.60;;;4.65;;
14734;SDS011;7458;49.002;8.472;2023-02-21T04:02:09;6.68;;;4.65;;
14734;SDS011;7458;49.002;8.472;2023-02-21T04:04:35;11.73;;;6.45;;
14734;SDS011;7458;49.002;8.472;2023-02-21T04:07:01;7.75;;;4.95;;
14734;SDS011;7458;49.002;8.472;2023-02-21T04:09:27;6.95;;;5.07;;
14734;SDS011;7458;49.002;8.472;2023-02-21T04:11:52;6.90;;;5.28;;
14734;SDS011;7458;49.002;8.472;2023-02-21T04:14:18;5.60;;;4.65;;
14734;SDS011;7458;49.002;8.472;2023-02-21T04:16:44;11.00;;;5.43;;
14734;SDS011;7458;49.002;8.472;2023-02-21T04:19:10;12.20;;;6.35;;
14734;SDS011;7458;49.002;8.472;2023-02-21T04:21:35;7.60;;;6.07;;
14734;SDS011;7458;49.002;8.472;2023-02-21T04:24:01;7.45;;;4.75;;
14734;SDS011;7458;49.002;8.472;2023-02-21T04:26:27;6.88;;;4.70;;
14734;SDS011;7458;49.002;8.472;2023-02-21T04:28:54;5.75;;;4.75;;
14734;SDS011;7458;49.002;8.472;2023-02-21T04:31:20;5.60;;;4.15;;
14734;SDS011;7458;49.002;8.472;2023-02-21T04:33:47;7.22;;;4.60;;
14734;SDS011;7458;49.002;8.472;2023-02-21T04:36:13;10.82;;;4.63;;
14734;SDS011;7458;49.002;8.472;2023-02-21T04:38:40;6.47;;;4.75;;
14734;SDS011;7458;49.002;8.472;2023-02-21T04:41:05;13.68;;;5.15;;
14734;SDS011;7458;49.002;8.472;2023-02-21T04:43:31;6.18;;;4.47;;
14734;SDS011;7458;49.002;8.472;2023-02-21T04:45:57;8.50;;;5.75;;
14734;SDS011;7458;49.002;8.472;2023-02-21T04:48:24;8.75;;;4.18;;
14734;SDS011;7458;49.002;8.472;2023-02-21T04:50:50;5.40;;;4.43;;
14734;SDS011;7458;49.002;8.472;2023-02-21T04:53:17;16.55;;;5.00;;
14734;SDS011;7458;49.002;8.472;2023-02-21T04:55:42;7.20;;;4.55;;
14734;SDS011;7458;49.002;8.472;2023-02-21T04:58:08;7.82;;;4.43;;
14734;SDS011;7458;49.002;8.472;2023-02-21T05:00:34;7.88;;;4.57;;
14734;SDS011;7458;49.002;8.472;2023-02-21T05:03:00;6.78;;;6.07;;
14734;SDS011;7458;49.002;8.472;2023-02-21T05:05:25;15.68;;;7.53;;
14734;SDS011;7458;49.002;8.472;2023-02-21T05:07:51;5.40;;;4.85;;
14734;SDS011;7458;49.002;8.472;2023-02-21T05:10:17;6.72;;;5.07;;
14734;SDS011;7458;49.002;8.472;2023-02-21T05:12:43;8.98;;;5.70;;
14734;SDS011;7458;49.002;8.472;2023-02-21T05:15:10;8.27;;;5.32;;
14734;SDS011;7458;49.002;8.472;2023-02-21T05:17:38;5.80;;;4.50;;
14734;SDS011;7458;49.002;8.472;2023-02-21T05:20:04;8.00;;;5.72;;
14734;SDS011;7458;49.002;8.472;2023-02-21T05:22:35;6.30;;;5.25;;
14734;SDS011;7458;49.002;8.472;2023-02-21T05:25:13;5.72;;;4.70;;
14734;SDS011;7458;49.002;8.472;2023-02-21T05:27:40;8.90;;;4.82;;
14734;SDS011;7458;49.002;8.472;2023-02-21T05:30:06;7.45;;;5.22;;
14734;SDS011;7458;49.002;8.472;2023-02-21T05:32:33;11.43;;;5.72;;
14734;SDS011;7458;49.002;8.472;2023-02-21T05:34:59;9.93;;;5.65;;
14734;SDS011;7458;49.002;8.472;2023-02-21T05:37:24;8.55;;;4.47;;
14734;SDS011;7458;49.002;8.472;2023-02-21T05:39:50;6.40;;;4.63;;
14734;SDS011;7458;49.002;8.472;2023-02-21T05:42:16;6.25;;;4.93;;
14734;SDS011;7458;49.002;8.472;2023-02-21T05:44:43;6.10;;;4.90;;
14734;SDS011;7458;49.002;8.472;2023-02-21T05:47:11;12.00;;;5.40;;
14734;SDS011;7458;49.002;8.472;2023-02-21T05:49:38;7.88;;;5.32;;
14734;SDS011;7458;49.002;8.472;2023-02-21T05:52:05;6.40;;;4.97;;
14734;SDS011;7458;49.002;8.472;2023-02-21T05:54:35;7.88;;;5.30;;
14734;SDS011;7458;49.002;8.472;2023-02-21T05:57:01;7.35;;;5.47;;
14734;SDS011;7458;49.002;8.472;2023-02-21T05:59:27;8.85;;;6.30;;
14734;SDS011;7458;49.002;8.472;2023-02-21T06:01:53;8.50;;;5.03;;
14734;SDS011;7458;49.002;8.472;2023-02-21T06:04:19;8.73;;;5.68;;
14734;SDS011;7458;49.002;8.472;2023-02-21T06:06:45;11.65;;;6.28;;
14734;SDS011;7458;49.002;8.472;2023-02-21T06:09:11;10.80;;;6.00;;
14734;SDS011;7458;49.002;8.472;2023-02-21T06:11:38;8.57;;;5.03;;
14734;SDS011;7458;49.002;8.472;2023-02-21T06:14:14;7.90;;;5.43;;
14734;SDS011;7458;49.002;8.472;2023-02-21T06:16:44;7.75;;;6.07;;
14734;SDS011;7458;49.002;8.472;2023-02-21T06:19:11;11.48;;;5.38;;
14734;SDS011;7458;49.002;8.472;2023-02-21T06:21:40;11.85;;;7.32;;
14734;SDS011;7458;49.002;8.472;2023-02-21T06:24:07;9.43;;;6.60;;
14734;SDS011;7458;49.002;8.472;2023-02-21T06:26:34;16.35;;;8.15;;
14734;SDS011;7458;49.002;8.472;2023-02-21T06:29:05;12.38;;;7.53;;
14734;SDS011;7458;49.002;8.472;2023-02-21T06:31:31;8.20;;;6.55;;
14734;SDS011;7458;49.002;8.472;2023-02-21T06:33:57;9.70;;;6.97;;
14734;SDS011;7458;49.002;8.472;2023-02-21T06:36:24;13.52;;;6.13;;
14734;SDS011;7458;49.002;8.472;2023-02-21T06:38:53;8.63;;;6.00;;
14734;SDS011;7458;49.002;8.472;2023-02-21T06:41:22;8.13;;;5.53;;
14734;SDS011;7458;49.002;8.472;2023-02-21T06:43:52;7.10;;;5.28;;
14734;SDS011;7458;49.002;8.472;2023-02-21T06:46:21;12.30;;;6.53;;
14734;SDS011;7458;49.002;8.472;2023-02-21T06:48:50;11.10;;;4.97;;
14734;SDS011;7458;49.002;8.472;2023-02-21T06:51:16;12.73;;;6.22;;
14734;SDS011;7458;49.002;8.472;2023-02-21T06:53:42;14.05;;;5.43;;
14734;SDS011;7458;49.002;8.472;2023-02-21T06:56:13;7.53;;;6.05;;
14734;SDS011;7458;49.002;8.472;2023-02-21T06:58:38;12.93;;;7.00;;
14734;SDS011;7458;49.002;8.472;2023-02-21T07:01:04;12.32;;;7.05;;
14734;SDS011;7458;49.002;8.472;2023-02-21T07:03:30;9.23;;;6.57;;
14734;SDS011;7458;49.002;8.472;2023-02-21T07:05:56;11.20;;;5.82;;
14734;SDS011;7458;49.002;8.472;2023-02-21T07:08:21;8.45;;;5.80;;
14734;SDS011;7458;49.002;8.472;2023-02-21T07:10:49;11.15;;;6.07;;
14734;SDS011;7458;49.002;8.472;2023-02-21T07:13:16;8.30;;;5.07;;
14734;SDS011;7458;49.002;8.472;2023-02-21T07:15:41;10.68;;;5.95;;
14734;SDS011;7458;49.002;8.472;2023-02-21T07:18:07;9.48;;;6.20;;
14734;SDS011;7458;49.002;8.472;2023-02-21T07:20:33;9.35;;;6.32;;
14734;SDS011;7458;49.002;8.472;2023-02-21T07:22:59;8.50;;;5.55;;
14734;SDS011;7458;49.002;8.472;2023-02-21T07:25:25;7.88;;;6.63;;
14734;SDS011;7458;49.002;8.472;2023-02-21T07:27:51;11.13;;;6.03;;
14734;SDS011;7458;49.002;8.472;2023-02-21T07:30:16;12.30;;;6.38;;
14734;SDS011;7458;49.002;8.472;2023-02-21T07:32:42;13.18;;;8.55;;
14734;SDS011;7458;49.002;8.472;2023-02-21T07:35:09;9.07;;;6.10;;
14734;SDS011;7458;49.002;8.472;2023-02-21T07:37:36;6.80;;;5.25;;
14734;SDS011;7458;49.002;8.472;2023-02-21T07:40:02;9.88;;;5.88;;
14734;SDS011;7458;49.002;8.472;2023-02-21T07:42:31;5.93;;;5.35;;
14734;SDS011;7458;49.002;8.472;2023-02-21T07:44:57;15.38;;;5.65;;
14734;SDS011;7458;49.002;8.472;2023-02-21T07:47:24;11.68;;;5.25;;
14734;SDS011;7458;49.002;8.472;2023-02-21T07:49:51;10.32;;;6.15;;
14734;SDS011;7458;49.002;8.472;2023-02-21T07:52:18;6.32;;;4.03;;
14734;SDS011;7458;49.002;8.472;2023-02-21T07:54:45;8.45;;;4.57;;
14734;SDS011;7458;49.002;8.472;2023-02-21T07:57:11;7.07;;;4.95;;
14734;SDS011;7458;49.002;8.472;2023-02-21T07:59:39;7.63;;;4.82;;
14734;SDS011;7458;49.002;8.472;2023-02-21T08:02:05;8.07;;;5.85;;
14734;SDS011;7458;49.002;8.472;2023-02-21T08:04:31;7.28;;;5.38;;
14734;SDS011;7458;49.002;8.472;2023-02-21T08:06:58;6.05;;;5.18;;
14734;SDS011;7458;49.002;8.472;2023-02-21T08:09:25;6.43;;;5.00;;
14734;SDS011;7458;49.002;8.472;2023-02-21T08:11:51;10.73;;;5.30;;
14734;SDS011;7458;49.002;8.472;2023-02-21T08:14:17;7.65;;;6.30;;
14734;SDS011;7458;49.002;8.472;2023-02-21T08:16:43;12.75;;;6.22;;
14734;SDS011;7458;49.002;8.472;2023-02-21T08:19:08;24.20;;;7.65;;
14734;SDS011;7458;49.002;8.472;2023-02-21T08:21:34;13.02;;;6.82;;
14734;SDS011;7458;49.002;8.472;2023-02-21T08:24:00;8.27;;;5.65;;
14734;SDS011;7458;49.002;8.472;2023-02-21T08:26:26;8.73;;;6.00;;
14734;SDS011;7458;49.002;8.472;2023-02-21T08:28:52;7.93;;;7.13;;
14734;SDS011;7458;49.002;8.472;2023-02-21T08:31:18;10.75;;;6.53;;
14734;SDS011;7458;49.002;8.472;2023-02-21T08:33:44;10.32;;;7.03;;
14734;SDS011;7458;49.002;8.472;2023-02-21T08:36:10;10.02;;;5.95;;
14734;SDS011;7458;49.002;8.472;2023-02-21T08:38:36;9.82;;;6.63;;
14734;SDS011;7458;49.002;8.472;2023-02-21T08:41:03;11.43;;;6.85;;
14734;SDS011;7458;49.002;8.472;2023-02-21T08:43:30;10.95;;;5.82;;
14734;SDS011;7458;49.002;8.472;2023-02-21T08:45:57;6.25;;;5.65;;
14734;SDS011;7458;49.002;8.472;2023-02-21T08:48:23;10.05;;;6.78;;
14734;SDS011;7458;49.002;8.472;2023-02-21T08:50:49;9.85;;;6.35;;
14734;SDS011;7458;49.002;8.472;2023-02-21T08:53:17;6.72;;;6.03;;
14734;SDS011;7458;49.002;8.472;2023-02-21T08:55:43;10.70;;;6.03;;
14734;SDS011;7458;49.002;8.472;2023-02-21T08:58:09;10.32;;;6.68;;
14734;SDS011;7458;49.002;8.472;2023-02-21T09:00:36;20.02;;;17.92;;
14734;SDS011;7458;49.002;8.472;2023-02-21T09:03:02;17.65;;;7.50;;
14734;SDS011;7458;49.002;8.472;2023-02-21T09:05:29;8.90;;;6.35;;
14734;SDS011;7458;49.002;8.472;2023-02-21T09:07:57;9.70;;;5.80;;
14734;SDS011;7458;49.002;8.472;2023-02-21T09:10:29;9.13;;;7.30;;
14734;SDS011;7458;49.002;8.472;2023-02-21T09:13:00;7.68;;;6.75;;
14734;SDS011;7458;49.002;8.472;2023-02-21T09:15:27;13.65;;;6.45;;
14734;SDS011;7458;49.002;8.472;2023-02-21T09:17:53;11.40;;;6.25;;
14734;SDS011;7458;49.002;8.472;2023-02-21T09:20:21;7.82;;;6.07;;
14734;SDS011;7458;49.002;8.472;2023-02-21T09:22:49;9.73;;;6.93;;
14734;SDS011;7458;49.002;8.472;2023-02-21T09:25:17;18.52;;;6.38;;
14734;SDS011;7458;49.002;8.472;2023-02-21T09:27:48;9.80;;;7.38;;
14734;SDS011;7458;49.002;8.472;2023-02-21T09:30:16;8.45;;;5.95;;
14734;SDS011;7458;49.002;8.472;2023-02-21T09:32:48;8.45;;;6.47;;
14734;SDS011;7458;49.002;8.472;2023-02-21T09:35:15;11.77;;;7.50;;
14734;SDS011;7458;49.002;8.472;2023-02-21T09:37:42;8.77;;;7.25;;
14734;SDS011;7458;49.002;8.472;2023-02-21T09:40:11;11.55;;;7.20;;
14734;SDS011;7458;49.002;8.472;2023-02-21T09:42:54;9.88;;;6.65;;
14734;SDS011;7458;49.002;8.472;2023-02-21T09:45:25;11.18;;;8.65;;
14734;SDS011;7458;49.002;8.472;2023-02-21T09:47:55;11.15;;;8.43;;
14734;SDS011;7458;49.002;8.472;2023-02-21T09:50:30;10.93;;;8.43;;
14734;SDS011;7458;49.002;8.472;2023-02-21T09:53:05;9.15;;;7.43;;
14734;SDS011;7458;49.002;8.472;2023-02-21T09:55:37;12.73;;;7.40;;
14734;SDS011;7458;49.002;8.472;2023-02-21T09:58:07;7.80;;;7.00;;
14734;SDS011;7458;49.002;8.472;2023-02-21T10:00:38;10.38;;;7.47;;
14734;SDS011;7458;49.002;8.472;2023-02-21T10:05:56;10.52;;;9.25;;
14734;SDS011;7458;49.002;8.472;2023-02-21T10:08:46;10.52;;;7.38;;
14734;SDS011;7458;49.002;8.472;2023-02-21T10:23:39;8.20;;;7.28;;
14734;SDS011;7458;49.002;8.472;2023-02-21T10:26:06;6.70;;;6.07;;
14734;SDS011;7458;49.002;8.472;2023-02-21T10:28:36;11.02;;;7.47;;
14734;SDS011;7458;49.002;8.472;2023-02-21T10:34:00;15.60;;;8.43;;
14734;SDS011;7458;49.002;8.472;2023-02-21T10:36:31;13.13;;;8.35;;
14734;SDS011;7458;49.002;8.472;2023-02-21T10:39:02;9.50;;;7.32;;
14734;SDS011;7458;49.002;8.472;2023-02-21T10:41:39;13.93;;;7.82;;
14734;SDS011;7458;49.002;8.472;2023-02-21T10:44:15;14.80;;;8.40;;
14734;SDS011;7458;49.002;8.472;2023-02-21T10:47:03;11.00;;;6.90;;
14734;SDS011;7458;49.002;8.472;2023-02-21T10:49:51;11.52;;;7.78;;
14734;SDS011;7458;49.002;8.472;2023-02-21T10:52:36;10.18;;;7.47;;
14734;SDS011;7458;49.002;8.472;2023-02-21T10:55:16;8.02;;;5.93;;
14734;SDS011;7458;49.002;8.472;2023-02-21T10:57:49;9.55;;;6.13;;
14734;SDS011;7458;49.002;8.472;2023-02-21T11:00:27;11.32;;;6.70;;
14734;SDS011;7458;49.002;8.472;2023-02-21T11:03:14;11.98;;;7.57;;
14734;SDS011;7458;49.002;8.472;2023-02-21T11:05:47;7.65;;;6.80;;
14734;SDS011;7458;49.002;8.472;2023-02-21T11:08:15;11.98;;;7.43;;
14734;SDS011;7458;49.002;8.472;2023-02-21T11:11:07;6.85;;;6.00;;
14734;SDS011;7458;49.002;8.472;2023-02-21T11:13:34;10.45;;;7.18;;
14734;SDS011;7458;49.002;8.472;2023-02-21T11:16:17;10.23;;;6.47;;
14734;SDS011;7458;49.002;8.472;2023-02-21T11:18:46;7.75;;;6.30;;
14734;SDS011;7458;49.002;8.472;2023-02-21T11:21:30;6.88;;;6.15;;
14734;SDS011;7458;49.002;8.472;2023-02-21T11:24:00;8.57;;;6.22;;
14734;SDS011;7458;49.002;8.472;2023-02-21T11:26:30;6.93;;;5.53;;
14734;SDS011;7458;49.002;8.472;2023-02-21T11:29:19;7.10;;;5.95;;
14734;SDS011;7458;49.002;8.472;2023-02-21T11:31:49;9.55;;;6.78;;
14734;SDS011;7458;49.002;8.472;2023-02-21T11:34:17;8.30;;;5.22;;
14734;SDS011;7458;49.002;8.472;2023-02-21T11:36:45;9.55;;;6.47;;
14734;SDS011;7458;49.002;8.472;2023-02-21T11:39:23;11.98;;;5.97;;
14734;SDS011;7458;49.002;8.472;2023-02-21T11:41:57;9.80;;;5.70;;
14734;SDS011;7458;49.002;8.472;2023-02-21T11:44:34;11.07;;;5.68;;
14734;SDS011;7458;49.002;8.472;2023-02-21T11:47:06;10.88;;;5.47;;
14734;SDS011;7458;49.002;8.472;2023-02-21T11:49:55;8.73;;;5.47;;
14734;SDS011;7458;49.002;8.472;2023-02-21T11:55:16;10.55;;;5.13;;
14734;SDS011;7458;49.002;8.472;2023-02-21T12:06:24;6.75;;;4.93;;
14734;SDS011;7458;49.002;8.472;2023-02-21T12:15:25;8.43;;;4.70;;
14734;SDS011;7458;49.002;8.472;2023-02-21T12:24:11;4.43;;;3.22;;
14734;SDS011;7458;49.002;8.472;2023-02-21T12:27:14;5.65;;;3.70;;
14734;SDS011;7458;49.002;8.472;2023-02-21T12:47:52;4.63;;;3.33;;
14734;SDS011;7458;49.002;8.472;2023-02-21T12:50:52;7.75;;;4.35;;
14734;SDS011;7458;49.002;8.472;2023-02-21T12:53:46;6.25;;;3.58;;
14734;SDS011;7458;49.002;8.472;2023-02-21T12:56:34;4.13;;;3.50;;
14734;SDS011;7458;49.002;8.472;2023-02-21T12:59:17;6.45;;;4.05;;
14734;SDS011;7458;49.002;8.472;2023-02-21T13:02:18;10.13;;;3.95;;
14734;SDS011;7458;49.002;8.472;2023-02-21T13:04:55;9.90;;;3.45;;
14734;SDS011;7458;49.002;8.472;2023-02-21T13:07:37;10.23;;;3.70;;
14734;SDS011;7458;49.002;8.472;2023-02-21T13:12:55;5.57;;;2.85;;
14734;SDS011;7458;49.002;8.472;2023-02-21T13:15:37;4.82;;;2.85;;
14734;SDS011;7458;49.002;8.472;2023-02-21T13:18:09;6.70;;;3.67;;
14734;SDS011;7458;49.002;8.472;2023-02-21T13:24:39;5.70;;;3.03;;
14734;SDS011;7458;49.002;8.472;2023-02-21T13:30:36;6.90;;;2.75;;
14734;SDS011;7458;49.002;8.472;2023-02-21T13:33:06;4.22;;;2.92;;
14734;SDS011;7458;49.002;8.472;2023-02-21T13:35:51;5.67;;;2.57;;
14734;SDS011;7458;49.002;8.472;2023-02-21T13:38:17;4.22;;;2.92;;
14734;SDS011;7458;49.002;8.472;2023-02-21T13:40:50;3.78;;;2.50;;
14734;SDS011;7458;49.002;8.472;2023-02-21T13:43:30;5.55;;;2.88;;
14734;SDS011;7458;49.002;8.472;2023-02-21T13:57:39;4.68;;;3.10;;
14734;SDS011;7458;49.002;8.472;2023-02-21T14:11:17;7.55;;;2.35;;
14734;SDS011;7458;49.002;8.472;2023-02-21T14:13:56;4.57;;;2.83;;
14734;SDS011;7458;49.002;8.472;2023-02-21T14:24:50;5.20;;;2.78;;
14734;SDS011;7458;49.002;8.472;2023-02-21T14:27:41;4.13;;;2.30;;
14734;SDS011;7458;49.002;8.472;2023-02-21T14:32:36;16.90;;;15.13;;
14734;SDS011;7458;49.002;8.472;2023-02-21T14:38:19;3.97;;;2.42;;
14734;SDS011;7458;49.002;8.472;2023-02-21T14:40:54;3.45;;;2.05;;
14734;SDS011;7458;49.002;8.472;2023-02-21T14:49:20;4.13;;;2.13;;
14734;SDS011;7458;49.002;8.472;2023-02-21T14:55:33;3.85;;;1.80;;
14734;SDS011;7458;49.002;8.472;2023-02-21T14:58:05;3.90;;;1.77;;
14734;SDS011;7458;49.002;8.472;2023-02-21T15:00:47;8.75;;;2.17;;
14734;SDS011;7458;49.002;8.472;2023-02-21T15:03:41;2.50;;;1.58;;
14734;SDS011;7458;49.002;8.472;2023-02-21T15:06:19;4.20;;;1.55;;
14734;SDS011;7458;49.002;8.472;2023-02-21T15:08:50;3.20;;;2.22;;
14734;SDS011;7458;49.002;8.472;2023-02-21T15:11:24;2.53;;;1.38;;
14734;SDS011;7458;49.002;8.472;2023-02-21T15:14:16;3.78;;;1.63;;
14734;SDS011;7458;49.002;8.472;2023-02-21T15:16:50;1.30;;;1.20;;
14734;SDS011;7458;49.002;8.472;2023-02-21T15:19:21;3.65;;;1.70;;
14734;SDS011;7458;49.002;8.472;2023-02-21T15:24:40;2.88;;;2.22;;
14734;SDS011;7458;49.002;8.472;2023-02-21T15:27:20;3.35;;;1.90;;
14734;SDS011;7458;49.002;8.472;2023-02-21T15:30:00;2.38;;;1.95;;
14734;SDS011;7458;49.002;8.472;2023-02-21T15:32:37;2.25;;;1.50;;
14734;SDS011;7458;49.002;8.472;2023-02-21T15:35:09;4.13;;;2.05;;
14734;SDS011;7458;49.002;8.472;2023-02-21T15:37:46;2.95;;;1.35;;
14734;SDS011;7458;49.002;8.472;2023-02-21T15:40:14;3.75;;;2.13;;
14734;SDS011;7458;49.002;8.472;2023-02-21T15:42:47;1.85;;;1.40;;
14734;SDS011;7458;49.002;8.472;2023-02-21T15:47:54;4.03;;;1.83;;
14734;SDS011;7458;49.002;8.472;2023-02-21T15:53:11;4.17;;;2.00;;
14734;SDS011;7458;49.002;8.472;2023-02-21T15:55:42;3.95;;;1.70;;
14734;SDS011;7458;49.002;8.472;2023-02-21T15:58:14;4.85;;;2.08;;
14734;SDS011;7458;49.002;8.472;2023-02-21T16:00:46;2.85;;;1.80;;
14734;SDS011;7458;49.002;8.472;2023-02-21T16:03:32;3.65;;;2.55;;
14734;SDS011;7458;49.002;8.472;2023-02-21T16:08:39;3.42;;;1.95;;
14734;SDS011;7458;49.002;8.472;2023-02-21T16:17:26;8.02;;;3.63;;
14734;SDS011;7458;49.002;8.472;2023-02-21T16:23:11;10.57;;;4.28;;
14734;SDS011;7458;49.002;8.472;2023-02-21T16:28:36;5.53;;;3.75;;
14734;SDS011;7458;49.002;8.472;2023-02-21T16:31:09;7.70;;;4.32;;
14734;SDS011;7458;49.002;8.472;2023-02-21T16:33:57;10.50;;;4.80;;
14734;SDS011;7458;49.002;8.472;2023-02-21T16:36:28;7.25;;;3.88;;
14734;SDS011;7458;49.002;8.472;2023-02-21T16:38:58;7.00;;;4.75;;
14734;SDS011;7458;49.002;8.472;2023-02-21T16:41:24;11.05;;;5.20;;
14734;SDS011;7458;49.002;8.472;2023-02-21T16:43:51;8.52;;;4.78;;
14734;SDS011;7458;49.002;8.472;2023-02-21T16:46:22;8.52;;;4.78;;
14734;SDS011;7458;49.002;8.472;2023-02-21T16:48:54;7.82;;;4.63;;
14734;SDS011;7458;49.002;8.472;2023-02-21T16:51:20;10.25;;;3.92;;
14734;SDS011;7458;49.002;8.472;2023-02-21T16:53:46;8.55;;;4.18;;
14734;SDS011;7458;49.002;8.472;2023-02-21T16:56:13;6.40;;;4.57;;
14734;SDS011;7458;49.002;8.472;2023-02-21T16:58:43;10.63;;;5.05;;
14734;SDS011;7458;49.002;8.472;2023-02-21T17:01:17;9.53;;;4.90;;
14734;SDS011;7458;49.002;8.472;2023-02-21T17:03:51;9.73;;;5.53;;
14734;SDS011;7458;49.002;8.472;2023-02-21T17:06:20;13.18;;;5.97;;
14734;SDS011;7458;49.002;8.472;2023-02-21T17:08:50;8.52;;;6.32;;
14734;SDS011;7458;49.002;8.472;2023-02-21T17:11:16;14.68;;;5.75;;
14734;SDS011;7458;49.002;8.472;2023-02-21T17:13:42;12.25;;;6.20;;
14734;SDS011;7458;49.002;8.472;2023-02-21T17:16:08;8.25;;;5.38;;
14734;SDS011;7458;49.002;8.472;2023-02-21T17:18:34;10.77;;;5.00;;
14734;SDS011;7458;49.002;8.472;2023-02-21T17:21:00;6.85;;;5.38;;
14734;SDS011;7458;49.002;8.472;2023-02-21T17:23:27;9.38;;;6.57;;
14734;SDS011;7458;49.002;8.472;2023-02-21T17:25:52;7.47;;;4.47;;
14734;SDS011;7458;49.002;8.472;2023-02-21T17:28:18;6.85;;;4.95;;
14734;SDS011;7458;49.002;8.472;2023-02-21T17:30:44;6.53;;;3.97;;
14734;SDS011;7458;49.002;8.472;2023-02-21T17:33:11;7.43;;;4.10;;
14734;SDS011;7458;49.002;8.472;2023-02-21T17:35:39;6.60;;;4.32;;
14734;SDS011;7458;49.002;8.472;2023-02-21T17:38:05;8.18;;;5.43;;
14734;SDS011;7458;49.002;8.472;2023-02-21T17:40:31;8.32;;;3.97;;
14734;SDS011;7458;49.002;8.472;2023-02-21T17:42:57;6.78;;;4.40;;
14734;SDS011;7458;49.002;8.472;2023-02-21T17:45:23;11.90;;;4.82;;
14734;SDS011;7458;49.002;8.472;2023-02-21T17:47:50;5.95;;;3.83;;
14734;SDS011;7458;49.002;8.472;2023-02-21T17:50:20;6.68;;;4.40;;
14734;SDS011;7458;49.002;8.472;2023-02-21T17:52:45;6.57;;;4.45;;
14734;SDS011;7458;49.002;8.472;2023-02-21T17:55:18;7.88;;;4.95;;
14734;SDS011;7458;49.002;8.472;2023-02-21T17:57:49;8.65;;;4.85;;
14734;SDS011;7458;49.002;8.472;2023-02-21T18:00:22;12.30;;;5.32;;
14734;SDS011;7458;49.002;8.472;2023-02-21T18:02:52;6.35;;;4.57;;
14734;SDS011;7458;49.002;8.472;2023-02-21T18:05:19;9.45;;;4.90;;
14734;SDS011;7458;49.002;8.472;2023-02-21T18:07:50;8.15;;;4.05;;
14734;SDS011;7458;49.002;8.472;2023-02-21T18:10:18;7.78;;;3.95;;
14734;SDS011;7458;49.002;8.472;2023-02-21T18:12:47;6.18;;;4.28;;
14734;SDS011;7458;49.002;8.472;2023-02-21T18:15:14;8.25;;;5.10;;
14734;SDS011;7458;49.002;8.472;2023-02-21T18:17:40;9.63;;;6.55;;